sensor_id;sensor_type;location;lat;lon;timestamp;P1;durP1;ratioP1;P2;durP2;ratioP2
38264;SDS011;24062;47.480;8.768;2023-02-08T00:01:17;34.10;;;20.47;;
38264;SDS011;24062;47.480;8.768;2023-02-08T00:03:46;27.63;;;16.57;;
38264;SDS011;24062;47.480;8.768;2023-02-08T00:06:15;27.40;;;18.67;;
38264;SDS011;24062;47.480;8.768;2023-02-08T00:08:42;30.70;;;18.70;;
38264;SDS011;24062;47.480;8.768;2023-02-08T00:11:09;26.13;;;18.53;;
38264;SDS011;24062;47.480;8.768;2023-02-08T00:13:37;22.20;;;15.10;;
38264;SDS011;24062;47.480;8.768;2023-02-08T00:16:05;24.40;;;15.17;;
38264;SDS011;24062;47.480;8.768;2023-02-08T00:18:32;26.23;;;15.03;;
38264;SDS011;24062;47.480;8.768;2023-02-08T00:20:59;18.33;;;13.23;;
38264;SDS011;24062;47.480;8.768;2023-02-08T00:23:27;21.50;;;13.13;;
38264;SDS011;24062;47.480;8.768;2023-02-08T00:25:54;25.13;;;14.00;;
38264;SDS011;24062;47.480;8.768;2023-02-08T00:28:21;16.87;;;13.00;;
38264;SDS011;24062;47.480;8.768;2023-02-08T00:30:48;24.77;;;13.67;;
38264;SDS011;24062;47.480;8.768;2023-02-08T00:33:15;19.60;;;13.30;;
38264;SDS011;24062;47.480;8.768;2023-02-08T00:35:42;18.87;;;12.43;;
38264;SDS011;24062;47.480;8.768;2023-02-08T00:38:09;20.07;;;12.20;;
38264;SDS011;24062;47.480;8.768;2023-02-08T00:40:37;22.43;;;13.33;;
38264;SDS011;24062;47.480;8.768;2023-02-08T00:43:04;25.00;;;13.97;;
38264;SDS011;24062;47.480;8.768;2023-02-08T00:45:32;20.03;;;13.23;;
38264;SDS011;24062;47.480;8.768;2023-02-08T00:47:59;17.57;;;12.13;;
38264;SDS011;24062;47.480;8.768;2023-02-08T00:50:26;19.80;;;13.30;;
38264;SDS011;24062;47.480;8.768;2023-02-08T00:52:53;22.70;;;13.97;;
38264;SDS011;24062;47.480;8.768;2023-02-08T00:55:20;19.07;;;13.13;;
38264;SDS011;24062;47.480;8.768;2023-02-08T00:57:48;20.37;;;13.53;;
38264;SDS011;24062;47.480;8.768;2023-02-08T01:00:15;18.63;;;12.20;;
38264;SDS011;24062;47.480;8.768;2023-02-08T01:02:42;17.90;;;12.13;;
38264;SDS011;24062;47.480;8.768;2023-02-08T01:05:09;21.00;;;12.40;;
38264;SDS011;24062;47.480;8.768;2023-02-08T01:07:36;19.47;;;13.13;;
38264;SDS011;24062;47.480;8.768;2023-02-08T01:10:04;22.53;;;13.90;;
38264;SDS011;24062;47.480;8.768;2023-02-08T01:12:33;19.40;;;12.30;;
38264;SDS011;24062;47.480;8.768;2023-02-08T01:15:01;19.40;;;12.93;;
38264;SDS011;24062;47.480;8.768;2023-02-08T01:17:29;19.30;;;12.67;;
38264;SDS011;24062;47.480;8.768;2023-02-08T01:19:56;22.97;;;13.70;;
38264;SDS011;24062;47.480;8.768;2023-02-08T01:22:23;20.00;;;13.17;;
38264;SDS011;24062;47.480;8.768;2023-02-08T01:24:50;17.87;;;12.63;;
38264;SDS011;24062;47.480;8.768;2023-02-08T01:27:17;21.13;;;14.63;;
38264;SDS011;24062;47.480;8.768;2023-02-08T01:29:44;18.47;;;12.90;;
38264;SDS011;24062;47.480;8.768;2023-02-08T01:32:12;23.30;;;14.57;;
38264;SDS011;24062;47.480;8.768;2023-02-08T01:34:39;22.60;;;13.90;;
38264;SDS011;24062;47.480;8.768;2023-02-08T01:37:06;19.60;;;13.20;;
38264;SDS011;24062;47.480;8.768;2023-02-08T01:39:33;21.20;;;13.93;;
38264;SDS011;24062;47.480;8.768;2023-02-08T01:42:00;18.07;;;12.67;;
38264;SDS011;24062;47.480;8.768;2023-02-08T01:47:32;17.60;;;12.30;;
38264;SDS011;24062;47.480;8.768;2023-02-08T01:49:59;24.07;;;14.53;;
38264;SDS011;24062;47.480;8.768;2023-02-08T01:52:26;20.17;;;12.70;;
38264;SDS011;24062;47.480;8.768;2023-02-08T01:54:55;17.73;;;12.43;;
38264;SDS011;24062;47.480;8.768;2023-02-08T01:57:25;21.03;;;13.40;;
38264;SDS011;24062;47.480;8.768;2023-02-08T01:59:54;21.20;;;13.03;;
38264;SDS011;24062;47.480;8.768;2023-02-08T02:02:23;25.80;;;12.83;;
38264;SDS011;24062;47.480;8.768;2023-02-08T02:04:52;19.90;;;12.33;;
38264;SDS011;24062;47.480;8.768;2023-02-08T02:07:21;21.30;;;12.50;;
38264;SDS011;24062;47.480;8.768;2023-02-08T02:09:52;17.53;;;11.87;;
38264;SDS011;24062;47.480;8.768;2023-02-08T02:12:24;18.73;;;12.87;;
38264;SDS011;24062;47.480;8.768;2023-02-08T02:14:51;21.73;;;12.57;;
38264;SDS011;24062;47.480;8.768;2023-02-08T02:17:19;17.23;;;12.23;;
38264;SDS011;24062;47.480;8.768;2023-02-08T02:19:48;19.90;;;13.30;;
38264;SDS011;24062;47.480;8.768;2023-02-08T02:22:29;18.53;;;12.37;;
38264;SDS011;24062;47.480;8.768;2023-02-08T02:25:18;19.47;;;12.33;;
38264;SDS011;24062;47.480;8.768;2023-02-08T02:28:07;18.57;;;12.20;;
38264;SDS011;24062;47.480;8.768;2023-02-08T02:33:58;20.53;;;12.70;;
38264;SDS011;24062;47.480;8.768;2023-02-08T02:36:32;17.37;;;11.97;;
38264;SDS011;24062;47.480;8.768;2023-02-08T02:39:11;15.83;;;11.30;;
38264;SDS011;24062;47.480;8.768;2023-02-08T02:41:46;19.70;;;13.57;;
38264;SDS011;24062;47.480;8.768;2023-02-08T02:44:37;15.20;;;10.67;;
38264;SDS011;24062;47.480;8.768;2023-02-08T02:47:11;20.87;;;13.30;;
38264;SDS011;24062;47.480;8.768;2023-02-08T02:49:47;17.50;;;12.07;;
38264;SDS011;24062;47.480;8.768;2023-02-08T02:52:18;19.83;;;13.00;;
38264;SDS011;24062;47.480;8.768;2023-02-08T02:54:52;18.23;;;12.03;;
38264;SDS011;24062;47.480;8.768;2023-02-08T02:57:25;19.63;;;11.63;;
38264;SDS011;24062;47.480;8.768;2023-02-08T02:59:56;20.17;;;11.80;;
38264;SDS011;24062;47.480;8.768;2023-02-08T03:02:24;20.30;;;12.80;;
38264;SDS011;24062;47.480;8.768;2023-02-08T03:04:54;19.23;;;12.20;;
38264;SDS011;24062;47.480;8.768;2023-02-08T03:07:28;16.70;;;11.60;;
38264;SDS011;24062;47.480;8.768;2023-02-08T03:10:13;16.37;;;11.10;;
38264;SDS011;24062;47.480;8.768;2023-02-08T03:12:54;17.97;;;11.67;;
38264;SDS011;24062;47.480;8.768;2023-02-08T03:15:28;22.10;;;12.50;;
38264;SDS011;24062;47.480;8.768;2023-02-08T03:18:04;15.17;;;11.67;;
38264;SDS011;24062;47.480;8.768;2023-02-08T03:20:43;22.47;;;11.30;;
38264;SDS011;24062;47.480;8.768;2023-02-08T03:23:18;19.67;;;12.13;;
38264;SDS011;24062;47.480;8.768;2023-02-08T03:25:50;18.10;;;11.07;;
38264;SDS011;24062;47.480;8.768;2023-02-08T03:28:25;19.93;;;11.60;;
38264;SDS011;24062;47.480;8.768;2023-02-08T03:30:58;18.70;;;11.60;;
38264;SDS011;24062;47.480;8.768;2023-02-08T03:33:32;19.53;;;12.43;;
38264;SDS011;24062;47.480;8.768;2023-02-08T03:36:07;24.50;;;13.03;;
38264;SDS011;24062;47.480;8.768;2023-02-08T03:38:40;15.37;;;10.90;;
38264;SDS011;24062;47.480;8.768;2023-02-08T03:41:11;17.77;;;11.17;;
38264;SDS011;24062;47.480;8.768;2023-02-08T03:43:41;18.70;;;12.47;;
38264;SDS011;24062;47.480;8.768;2023-02-08T03:46:12;19.00;;;12.30;;
38264;SDS011;24062;47.480;8.768;2023-02-08T03:48:44;19.97;;;12.47;;
38264;SDS011;24062;47.480;8.768;2023-02-08T03:51:14;16.20;;;10.73;;
38264;SDS011;24062;47.480;8.768;2023-02-08T03:53:43;21.17;;;12.10;;
38264;SDS011;24062;47.480;8.768;2023-02-08T03:56:13;21.13;;;12.20;;
38264;SDS011;24062;47.480;8.768;2023-02-08T03:58:44;22.70;;;13.30;;
38264;SDS011;24062;47.480;8.768;2023-02-08T04:01:15;15.20;;;12.00;;
38264;SDS011;24062;47.480;8.768;2023-02-08T04:03:46;19.03;;;11.80;;
38264;SDS011;24062;47.480;8.768;2023-02-08T04:06:18;18.27;;;10.53;;
38264;SDS011;24062;47.480;8.768;2023-02-08T04:08:46;20.30;;;12.70;;
38264;SDS011;24062;47.480;8.768;2023-02-08T04:11:13;16.87;;;11.90;;
38264;SDS011;24062;47.480;8.768;2023-02-08T04:13:40;18.67;;;13.03;;
38264;SDS011;24062;47.480;8.768;2023-02-08T04:16:08;18.27;;;12.17;;
38264;SDS011;24062;47.480;8.768;2023-02-08T04:18:35;19.80;;;13.57;;
38264;SDS011;24062;47.480;8.768;2023-02-08T04:21:02;18.23;;;11.43;;
38264;SDS011;24062;47.480;8.768;2023-02-08T04:23:30;18.63;;;12.17;;
38264;SDS011;24062;47.480;8.768;2023-02-08T04:25:57;22.50;;;11.80;;
38264;SDS011;24062;47.480;8.768;2023-02-08T04:28:24;17.47;;;11.43;;
38264;SDS011;24062;47.480;8.768;2023-02-08T04:30:53;16.50;;;12.17;;
38264;SDS011;24062;47.480;8.768;2023-02-08T04:33:20;17.87;;;12.37;;
38264;SDS011;24062;47.480;8.768;2023-02-08T04:35:47;20.10;;;12.57;;
38264;SDS011;24062;47.480;8.768;2023-02-08T04:38:14;18.40;;;12.90;;
38264;SDS011;24062;47.480;8.768;2023-02-08T04:40:43;20.20;;;12.00;;
38264;SDS011;24062;47.480;8.768;2023-02-08T04:43:10;18.43;;;11.60;;
38264;SDS011;24062;47.480;8.768;2023-02-08T04:45:37;17.70;;;12.20;;
38264;SDS011;24062;47.480;8.768;2023-02-08T04:48:04;19.07;;;11.90;;
38264;SDS011;24062;47.480;8.768;2023-02-08T04:50:31;16.67;;;11.30;;
38264;SDS011;24062;47.480;8.768;2023-02-08T04:52:58;19.03;;;11.43;;
38264;SDS011;24062;47.480;8.768;2023-02-08T04:55:25;18.57;;;12.50;;
38264;SDS011;24062;47.480;8.768;2023-02-08T04:57:54;17.43;;;11.70;;
38264;SDS011;24062;47.480;8.768;2023-02-08T05:00:21;17.40;;;11.47;;
38264;SDS011;24062;47.480;8.768;2023-02-08T05:02:50;18.60;;;11.87;;
38264;SDS011;24062;47.480;8.768;2023-02-08T05:05:18;16.57;;;11.43;;
38264;SDS011;24062;47.480;8.768;2023-02-08T05:07:45;19.60;;;12.10;;
38264;SDS011;24062;47.480;8.768;2023-02-08T05:10:12;17.60;;;11.97;;
38264;SDS011;24062;47.480;8.768;2023-02-08T05:12:39;17.30;;;12.33;;
38264;SDS011;24062;47.480;8.768;2023-02-08T05:15:08;16.43;;;11.97;;
38264;SDS011;24062;47.480;8.768;2023-02-08T05:17:35;18.17;;;11.43;;
38264;SDS011;24062;47.480;8.768;2023-02-08T05:20:02;16.40;;;11.50;;
38264;SDS011;24062;47.480;8.768;2023-02-08T05:22:30;16.93;;;10.60;;
38264;SDS011;24062;47.480;8.768;2023-02-08T05:24:57;18.87;;;11.90;;
38264;SDS011;24062;47.480;8.768;2023-02-08T05:27:24;18.77;;;11.97;;
38264;SDS011;24062;47.480;8.768;2023-02-08T05:29:52;21.40;;;12.40;;
38264;SDS011;24062;47.480;8.768;2023-02-08T05:32:20;17.87;;;11.23;;
38264;SDS011;24062;47.480;8.768;2023-02-08T05:34:47;16.57;;;11.00;;
38264;SDS011;24062;47.480;8.768;2023-02-08T05:37:14;20.37;;;12.33;;
38264;SDS011;24062;47.480;8.768;2023-02-08T05:39:41;20.10;;;12.20;;
38264;SDS011;24062;47.480;8.768;2023-02-08T05:42:08;20.10;;;11.60;;
38264;SDS011;24062;47.480;8.768;2023-02-08T05:44:35;19.20;;;12.33;;
38264;SDS011;24062;47.480;8.768;2023-02-08T05:47:02;20.00;;;11.33;;
38264;SDS011;24062;47.480;8.768;2023-02-08T05:49:30;17.90;;;12.10;;
38264;SDS011;24062;47.480;8.768;2023-02-08T05:51:57;15.90;;;11.10;;
38264;SDS011;24062;47.480;8.768;2023-02-08T05:54:24;18.53;;;10.90;;
38264;SDS011;24062;47.480;8.768;2023-02-08T05:56:51;20.33;;;12.00;;
38264;SDS011;24062;47.480;8.768;2023-02-08T05:59:18;19.30;;;12.17;;
38264;SDS011;24062;47.480;8.768;2023-02-08T06:01:45;19.57;;;12.43;;
38264;SDS011;24062;47.480;8.768;2023-02-08T06:04:12;22.10;;;12.53;;
38264;SDS011;24062;47.480;8.768;2023-02-08T06:06:40;14.30;;;10.73;;
38264;SDS011;24062;47.480;8.768;2023-02-08T06:09:07;15.83;;;11.53;;
38264;SDS011;24062;47.480;8.768;2023-02-08T06:11:34;18.97;;;10.73;;
38264;SDS011;24062;47.480;8.768;2023-02-08T06:14:01;21.10;;;12.80;;
38264;SDS011;24062;47.480;8.768;2023-02-08T06:16:28;22.17;;;13.43;;
38264;SDS011;24062;47.480;8.768;2023-02-08T06:18:55;17.90;;;11.97;;
38264;SDS011;24062;47.480;8.768;2023-02-08T06:21:22;15.50;;;11.50;;
38264;SDS011;24062;47.480;8.768;2023-02-08T06:23:50;18.70;;;12.33;;
38264;SDS011;24062;47.480;8.768;2023-02-08T06:26:17;21.37;;;13.30;;
38264;SDS011;24062;47.480;8.768;2023-02-08T06:28:44;14.70;;;10.70;;
38264;SDS011;24062;47.480;8.768;2023-02-08T06:31:11;18.60;;;12.67;;
38264;SDS011;24062;47.480;8.768;2023-02-08T06:33:38;18.90;;;12.23;;
38264;SDS011;24062;47.480;8.768;2023-02-08T06:36:05;20.87;;;12.03;;
38264;SDS011;24062;47.480;8.768;2023-02-08T06:38:33;18.67;;;12.80;;
38264;SDS011;24062;47.480;8.768;2023-02-08T06:41:01;19.03;;;12.63;;
38264;SDS011;24062;47.480;8.768;2023-02-08T06:43:28;16.37;;;11.90;;
38264;SDS011;24062;47.480;8.768;2023-02-08T06:45:55;15.50;;;10.70;;
38264;SDS011;24062;47.480;8.768;2023-02-08T06:48:22;18.07;;;11.80;;
38264;SDS011;24062;47.480;8.768;2023-02-08T06:50:50;27.37;;;12.10;;
38264;SDS011;24062;47.480;8.768;2023-02-08T06:53:17;19.90;;;11.30;;
38264;SDS011;24062;47.480;8.768;2023-02-08T06:55:46;18.73;;;12.03;;
38264;SDS011;24062;47.480;8.768;2023-02-08T06:58:15;17.53;;;11.37;;
38264;SDS011;24062;47.480;8.768;2023-02-08T07:00:41;22.13;;;10.73;;
38264;SDS011;24062;47.480;8.768;2023-02-08T07:03:09;22.67;;;11.90;;
38264;SDS011;24062;47.480;8.768;2023-02-08T07:05:37;23.53;;;12.10;;
38264;SDS011;24062;47.480;8.768;2023-02-08T07:08:04;20.67;;;12.00;;
38264;SDS011;24062;47.480;8.768;2023-02-08T07:10:32;18.67;;;11.63;;
38264;SDS011;24062;47.480;8.768;2023-02-08T07:13:00;19.50;;;11.50;;
38264;SDS011;24062;47.480;8.768;2023-02-08T07:15:28;26.77;;;12.13;;
38264;SDS011;24062;47.480;8.768;2023-02-08T07:17:56;17.43;;;11.63;;
38264;SDS011;24062;47.480;8.768;2023-02-08T07:20:23;20.33;;;12.10;;
38264;SDS011;24062;47.480;8.768;2023-02-08T07:22:50;15.63;;;10.60;;
38264;SDS011;24062;47.480;8.768;2023-02-08T07:25:17;16.93;;;11.50;;
38264;SDS011;24062;47.480;8.768;2023-02-08T07:27:44;24.90;;;12.40;;
38264;SDS011;24062;47.480;8.768;2023-02-08T07:30:11;16.80;;;11.53;;
38264;SDS011;24062;47.480;8.768;2023-02-08T07:32:40;17.00;;;11.30;;
38264;SDS011;24062;47.480;8.768;2023-02-08T07:35:07;19.17;;;12.00;;
38264;SDS011;24062;47.480;8.768;2023-02-08T07:37:34;17.97;;;11.57;;
38264;SDS011;24062;47.480;8.768;2023-02-08T07:40:01;18.53;;;11.03;;
38264;SDS011;24062;47.480;8.768;2023-02-08T07:42:28;25.00;;;11.47;;
38264;SDS011;24062;47.480;8.768;2023-02-08T07:44:55;15.23;;;11.17;;
38264;SDS011;24062;47.480;8.768;2023-02-08T07:47:22;19.07;;;12.17;;
38264;SDS011;24062;47.480;8.768;2023-02-08T07:49:50;16.40;;;11.33;;
38264;SDS011;24062;47.480;8.768;2023-02-08T07:52:17;16.70;;;10.37;;
38264;SDS011;24062;47.480;8.768;2023-02-08T07:54:44;17.63;;;10.57;;
38264;SDS011;24062;47.480;8.768;2023-02-08T07:57:11;16.43;;;10.23;;
38264;SDS011;24062;47.480;8.768;2023-02-08T07:59:44;20.63;;;11.00;;
38264;SDS011;24062;47.480;8.768;2023-02-08T08:02:11;25.40;;;11.70;;
38264;SDS011;24062;47.480;8.768;2023-02-08T08:04:39;18.23;;;10.87;;
38264;SDS011;24062;47.480;8.768;2023-02-08T08:07:08;17.73;;;11.30;;
38264;SDS011;24062;47.480;8.768;2023-02-08T08:09:35;17.40;;;10.50;;
38264;SDS011;24062;47.480;8.768;2023-02-08T08:12:02;18.77;;;11.13;;
38264;SDS011;24062;47.480;8.768;2023-02-08T08:14:29;17.37;;;10.57;;
38264;SDS011;24062;47.480;8.768;2023-02-08T08:16:56;13.10;;;10.10;;
38264;SDS011;24062;47.480;8.768;2023-02-08T08:19:23;16.70;;;10.60;;
38264;SDS011;24062;47.480;8.768;2023-02-08T08:21:50;18.70;;;9.73;;
38264;SDS011;24062;47.480;8.768;2023-02-08T08:24:18;15.93;;;9.93;;
38264;SDS011;24062;47.480;8.768;2023-02-08T08:26:45;14.47;;;9.87;;
38264;SDS011;24062;47.480;8.768;2023-02-08T08:29:12;15.03;;;10.20;;
38264;SDS011;24062;47.480;8.768;2023-02-08T08:31:41;14.53;;;10.07;;
38264;SDS011;24062;47.480;8.768;2023-02-08T08:34:08;14.70;;;10.20;;
38264;SDS011;24062;47.480;8.768;2023-02-08T08:36:35;17.50;;;9.80;;
38264;SDS011;24062;47.480;8.768;2023-02-08T08:39:02;18.97;;;10.47;;
38264;SDS011;24062;47.480;8.768;2023-02-08T08:41:30;19.97;;;10.10;;
38264;SDS011;24062;47.480;8.768;2023-02-08T08:43:57;17.90;;;10.53;;
38264;SDS011;24062;47.480;8.768;2023-02-08T08:46:24;17.30;;;10.90;;
38264;SDS011;24062;47.480;8.768;2023-02-08T08:48:51;17.33;;;10.60;;
38264;SDS011;24062;47.480;8.768;2023-02-08T08:51:18;14.70;;;9.90;;
38264;SDS011;24062;47.480;8.768;2023-02-08T08:53:45;13.60;;;9.20;;
38264;SDS011;24062;47.480;8.768;2023-02-08T08:56:12;14.13;;;10.00;;
38264;SDS011;24062;47.480;8.768;2023-02-08T08:58:41;13.10;;;9.37;;
38264;SDS011;24062;47.480;8.768;2023-02-08T09:01:08;13.20;;;10.77;;
38264;SDS011;24062;47.480;8.768;2023-02-08T09:03:36;21.80;;;10.50;;
38264;SDS011;24062;47.480;8.768;2023-02-08T09:06:03;16.23;;;10.27;;
38264;SDS011;24062;47.480;8.768;2023-02-08T09:08:30;15.70;;;9.80;;
38264;SDS011;24062;47.480;8.768;2023-02-08T09:11:02;18.87;;;11.43;;
38264;SDS011;24062;47.480;8.768;2023-02-08T09:13:30;17.70;;;10.57;;
38264;SDS011;24062;47.480;8.768;2023-02-08T09:15:58;16.80;;;10.80;;
38264;SDS011;24062;47.480;8.768;2023-02-08T09:18:30;14.97;;;10.53;;
38264;SDS011;24062;47.480;8.768;2023-02-08T09:20:57;20.90;;;9.43;;
38264;SDS011;24062;47.480;8.768;2023-02-08T09:23:24;15.23;;;10.30;;
38264;SDS011;24062;47.480;8.768;2023-02-08T09:25:51;16.13;;;9.70;;
38264;SDS011;24062;47.480;8.768;2023-02-08T09:28:18;18.10;;;10.83;;
38264;SDS011;24062;47.480;8.768;2023-02-08T09:30:45;16.60;;;10.30;;
38264;SDS011;24062;47.480;8.768;2023-02-08T09:33:13;17.23;;;10.90;;
38264;SDS011;24062;47.480;8.768;2023-02-08T09:35:40;18.93;;;9.73;;
38264;SDS011;24062;47.480;8.768;2023-02-08T09:38:07;17.60;;;11.40;;
38264;SDS011;24062;47.480;8.768;2023-02-08T09:40:36;15.17;;;10.33;;
38264;SDS011;24062;47.480;8.768;2023-02-08T09:43:08;16.10;;;9.80;;
38264;SDS011;24062;47.480;8.768;2023-02-08T09:45:45;15.03;;;10.60;;
38264;SDS011;24062;47.480;8.768;2023-02-08T09:48:19;14.53;;;10.20;;
38264;SDS011;24062;47.480;8.768;2023-02-08T09:50:50;21.47;;;12.20;;
38264;SDS011;24062;47.480;8.768;2023-02-08T09:53:20;23.67;;;13.47;;
38264;SDS011;24062;47.480;8.768;2023-02-08T09:55:50;23.80;;;13.40;;
38264;SDS011;24062;47.480;8.768;2023-02-08T09:58:22;19.77;;;13.60;;
38264;SDS011;24062;47.480;8.768;2023-02-08T10:00:54;18.43;;;13.37;;
38264;SDS011;24062;47.480;8.768;2023-02-08T10:03:24;20.80;;;12.10;;
38264;SDS011;24062;47.480;8.768;2023-02-08T10:05:56;18.23;;;12.50;;
38264;SDS011;24062;47.480;8.768;2023-02-08T10:08:24;21.40;;;13.53;;
38264;SDS011;24062;47.480;8.768;2023-02-08T10:10:54;20.50;;;12.37;;
38264;SDS011;24062;47.480;8.768;2023-02-08T10:13:28;22.00;;;13.40;;
38264;SDS011;24062;47.480;8.768;2023-02-08T10:16:18;18.47;;;12.93;;
38264;SDS011;24062;47.480;8.768;2023-02-08T10:19:00;19.87;;;14.13;;
38264;SDS011;24062;47.480;8.768;2023-02-08T10:21:37;19.33;;;13.00;;
38264;SDS011;24062;47.480;8.768;2023-02-08T10:24:17;27.73;;;13.60;;
38264;SDS011;24062;47.480;8.768;2023-02-08T10:27:02;22.50;;;14.40;;
38264;SDS011;24062;47.480;8.768;2023-02-08T10:29:41;24.87;;;13.93;;
38264;SDS011;24062;47.480;8.768;2023-02-08T10:32:38;20.00;;;12.73;;
38264;SDS011;24062;47.480;8.768;2023-02-08T10:35:23;21.97;;;13.40;;
38264;SDS011;24062;47.480;8.768;2023-02-08T10:37:52;20.50;;;13.47;;
38264;SDS011;24062;47.480;8.768;2023-02-08T10:40:28;19.83;;;13.83;;
38264;SDS011;24062;47.480;8.768;2023-02-08T10:43:00;21.50;;;14.07;;
38264;SDS011;24062;47.480;8.768;2023-02-08T10:45:34;22.03;;;13.67;;
38264;SDS011;24062;47.480;8.768;2023-02-08T10:48:08;30.23;;;15.30;;
38264;SDS011;24062;47.480;8.768;2023-02-08T10:50:41;25.63;;;13.53;;
38264;SDS011;24062;47.480;8.768;2023-02-08T10:53:12;17.80;;;13.40;;
38264;SDS011;24062;47.480;8.768;2023-02-08T10:55:41;20.27;;;12.87;;
38264;SDS011;24062;47.480;8.768;2023-02-08T10:58:12;20.20;;;14.10;;
38264;SDS011;24062;47.480;8.768;2023-02-08T11:00:41;27.97;;;14.67;;
38264;SDS011;24062;47.480;8.768;2023-02-08T11:03:13;19.90;;;13.40;;
38264;SDS011;24062;47.480;8.768;2023-02-08T11:05:44;21.77;;;14.00;;
38264;SDS011;24062;47.480;8.768;2023-02-08T11:08:12;21.10;;;12.90;;
38264;SDS011;24062;47.480;8.768;2023-02-08T11:10:42;18.23;;;12.67;;
38264;SDS011;24062;47.480;8.768;2023-02-08T11:13:16;21.97;;;14.87;;
38264;SDS011;24062;47.480;8.768;2023-02-08T11:15:46;24.17;;;15.30;;
38264;SDS011;24062;47.480;8.768;2023-02-08T11:18:18;24.30;;;14.50;;
38264;SDS011;24062;47.480;8.768;2023-02-08T11:20:50;23.93;;;13.93;;
38264;SDS011;24062;47.480;8.768;2023-02-08T11:23:20;25.80;;;14.37;;
38264;SDS011;24062;47.480;8.768;2023-02-08T11:25:49;24.03;;;14.87;;
38264;SDS011;24062;47.480;8.768;2023-02-08T11:28:21;22.57;;;13.93;;
38264;SDS011;24062;47.480;8.768;2023-02-08T11:30:54;21.30;;;14.17;;
38264;SDS011;24062;47.480;8.768;2023-02-08T11:33:26;21.73;;;13.77;;
38264;SDS011;24062;47.480;8.768;2023-02-08T11:35:57;22.33;;;13.90;;
38264;SDS011;24062;47.480;8.768;2023-02-08T11:38:29;20.77;;;12.03;;
38264;SDS011;24062;47.480;8.768;2023-02-08T11:40:59;17.80;;;13.10;;
38264;SDS011;24062;47.480;8.768;2023-02-08T11:43:29;22.53;;;13.70;;
38264;SDS011;24062;47.480;8.768;2023-02-08T11:45:58;20.63;;;13.00;;
38264;SDS011;24062;47.480;8.768;2023-02-08T11:48:30;19.13;;;13.23;;
38264;SDS011;24062;47.480;8.768;2023-02-08T11:51:06;18.50;;;12.77;;
38264;SDS011;24062;47.480;8.768;2023-02-08T11:53:35;19.83;;;14.20;;
38264;SDS011;24062;47.480;8.768;2023-02-08T11:56:06;18.20;;;12.50;;
38264;SDS011;24062;47.480;8.768;2023-02-08T11:58:40;16.37;;;12.17;;
38264;SDS011;24062;47.480;8.768;2023-02-08T12:01:16;19.10;;;12.77;;
38264;SDS011;24062;47.480;8.768;2023-02-08T12:03:44;20.77;;;13.63;;
38264;SDS011;24062;47.480;8.768;2023-02-08T12:06:22;20.27;;;13.03;;
38264;SDS011;24062;47.480;8.768;2023-02-08T12:09:23;21.20;;;13.80;;
38264;SDS011;24062;47.480;8.768;2023-02-08T12:12:04;18.10;;;12.27;;
38264;SDS011;24062;47.480;8.768;2023-02-08T12:14:48;15.97;;;10.60;;
38264;SDS011;24062;47.480;8.768;2023-02-08T12:17:37;16.87;;;10.83;;
38264;SDS011;24062;47.480;8.768;2023-02-08T12:20:33;18.50;;;12.70;;
38264;SDS011;24062;47.480;8.768;2023-02-08T12:23:13;16.67;;;11.07;;
38264;SDS011;24062;47.480;8.768;2023-02-08T12:25:51;21.03;;;12.60;;
38264;SDS011;24062;47.480;8.768;2023-02-08T12:28:29;19.03;;;12.70;;
38264;SDS011;24062;47.480;8.768;2023-02-08T12:31:04;17.30;;;12.40;;
38264;SDS011;24062;47.480;8.768;2023-02-08T12:33:39;20.40;;;12.50;;
38264;SDS011;24062;47.480;8.768;2023-02-08T12:36:16;18.03;;;11.97;;
38264;SDS011;24062;47.480;8.768;2023-02-08T12:39:00;16.13;;;12.33;;
38264;SDS011;24062;47.480;8.768;2023-02-08T12:42:08;17.97;;;12.10;;
38264;SDS011;24062;47.480;8.768;2023-02-08T12:44:49;19.10;;;11.53;;
38264;SDS011;24062;47.480;8.768;2023-02-08T12:47:35;15.80;;;12.67;;
38264;SDS011;24062;47.480;8.768;2023-02-08T12:50:13;18.67;;;11.83;;
38264;SDS011;24062;47.480;8.768;2023-02-08T12:52:49;17.33;;;11.77;;
38264;SDS011;24062;47.480;8.768;2023-02-08T12:55:22;15.27;;;11.40;;
38264;SDS011;24062;47.480;8.768;2023-02-08T12:57:52;15.37;;;11.67;;
38264;SDS011;24062;47.480;8.768;2023-02-08T13:00:23;16.03;;;12.53;;
38264;SDS011;24062;47.480;8.768;2023-02-08T13:02:54;16.90;;;11.27;;
38264;SDS011;24062;47.480;8.768;2023-02-08T13:05:27;18.93;;;11.50;;
38264;SDS011;24062;47.480;8.768;2023-02-08T13:08:01;16.13;;;11.30;;
38264;SDS011;24062;47.480;8.768;2023-02-08T13:10:35;18.10;;;12.50;;
38264;SDS011;24062;47.480;8.768;2023-02-08T13:13:07;18.33;;;12.23;;
38264;SDS011;24062;47.480;8.768;2023-02-08T13:15:41;14.67;;;11.77;;
38264;SDS011;24062;47.480;8.768;2023-02-08T13:18:11;16.63;;;11.90;;
38264;SDS011;24062;47.480;8.768;2023-02-08T13:20:43;15.67;;;12.63;;
38264;SDS011;24062;47.480;8.768;2023-02-08T13:23:14;15.00;;;12.40;;
38264;SDS011;24062;47.480;8.768;2023-02-08T13:25:47;15.57;;;12.23;;
38264;SDS011;24062;47.480;8.768;2023-02-08T13:28:18;16.17;;;12.47;;
38264;SDS011;24062;47.480;8.768;2023-02-08T13:30:51;14.73;;;11.47;;
38264;SDS011;24062;47.480;8.768;2023-02-08T13:33:25;25.87;;;12.13;;
38264;SDS011;24062;47.480;8.768;2023-02-08T13:35:57;17.27;;;11.87;;
38264;SDS011;24062;47.480;8.768;2023-02-08T13:38:26;20.77;;;13.30;;
38264;SDS011;24062;47.480;8.768;2023-02-08T13:41:07;19.03;;;11.83;;
38264;SDS011;24062;47.480;8.768;2023-02-08T13:43:42;18.23;;;12.30;;
38264;SDS011;24062;47.480;8.768;2023-02-08T13:46:14;16.03;;;12.40;;
38264;SDS011;24062;47.480;8.768;2023-02-08T13:48:44;16.30;;;12.67;;
38264;SDS011;24062;47.480;8.768;2023-02-08T13:54:23;17.27;;;12.83;;
38264;SDS011;24062;47.480;8.768;2023-02-08T13:56:52;17.30;;;12.40;;
38264;SDS011;24062;47.480;8.768;2023-02-08T13:59:29;17.67;;;12.20;;
38264;SDS011;24062;47.480;8.768;2023-02-08T14:04:47;16.13;;;12.30;;
38264;SDS011;24062;47.480;8.768;2023-02-08T14:07:19;16.60;;;11.73;;
38264;SDS011;24062;47.480;8.768;2023-02-08T14:10:16;17.20;;;12.30;;
38264;SDS011;24062;47.480;8.768;2023-02-08T14:12:52;17.10;;;12.10;;
38264;SDS011;24062;47.480;8.768;2023-02-08T14:15:26;17.70;;;12.40;;
38264;SDS011;24062;47.480;8.768;2023-02-08T14:17:58;14.23;;;10.57;;
38264;SDS011;24062;47.480;8.768;2023-02-08T14:20:30;13.83;;;10.80;;
38264;SDS011;24062;47.480;8.768;2023-02-08T14:23:01;12.57;;;11.27;;
38264;SDS011;24062;47.480;8.768;2023-02-08T14:25:36;17.60;;;11.83;;
38264;SDS011;24062;47.480;8.768;2023-02-08T14:28:15;15.30;;;12.40;;
38264;SDS011;24062;47.480;8.768;2023-02-08T14:30:53;18.90;;;12.60;;
38264;SDS011;24062;47.480;8.768;2023-02-08T14:33:24;17.40;;;12.83;;
38264;SDS011;24062;47.480;8.768;2023-02-08T14:35:54;17.63;;;11.73;;
38264;SDS011;24062;47.480;8.768;2023-02-08T14:41:44;14.87;;;11.70;;
38264;SDS011;24062;47.480;8.768;2023-02-08T14:50:47;12.00;;;10.73;;
38264;SDS011;24062;47.480;8.768;2023-02-08T14:53:20;17.43;;;11.80;;
38264;SDS011;24062;47.480;8.768;2023-02-08T14:55:53;12.60;;;11.27;;
38264;SDS011;24062;47.480;8.768;2023-02-08T14:58:26;14.03;;;11.57;;
38264;SDS011;24062;47.480;8.768;2023-02-08T15:00:59;11.90;;;10.63;;
38264;SDS011;24062;47.480;8.768;2023-02-08T15:03:29;12.63;;;11.20;;